createdAt,value
2022-08-29T00:02:56.421Z,94.03
2022-08-29T00:05:58.539Z,94.68
2022-08-29T00:09:03.252Z,95.16
2022-08-29T00:12:05.781Z,94.50
2022-08-29T00:15:09.288Z,94.28
2022-08-29T00:18:11.581Z,94.23
2022-08-29T00:21:16.669Z,95.13
2022-08-29T00:24:18.580Z,94.23
2022-08-29T00:27:20.441Z,94.21
2022-08-29T00:30:23.638Z,93.10
2022-08-29T00:33:25.563Z,93.25
2022-08-29T00:36:30.455Z,92.97
2022-08-29T00:39:32.927Z,93.72
2022-08-29T00:42:35.922Z,93.94
2022-08-29T00:45:40.274Z,93.79
2022-08-29T00:48:42.592Z,93.78
2022-08-29T00:51:48.082Z,93.98
2022-08-29T00:54:52.431Z,93.37
2022-08-29T00:57:57.213Z,93.53
2022-08-29T01:00:59.598Z,94.09
2022-08-29T01:04:01.553Z,94.35
2022-08-29T01:07:04.034Z,94.21
2022-08-29T01:10:13.426Z,94.12
2022-08-29T01:13:16.175Z,93.87
2022-08-29T01:16:19.610Z,94.02
2022-08-29T01:19:41.632Z,94.02
2022-08-29T01:23:21.158Z,93.68
2022-08-29T01:26:23.461Z,93.64
2022-08-29T01:29:25.638Z,92.88
2022-08-29T01:32:27.777Z,92.93
2022-08-29T01:35:29.751Z,92.77
2022-08-29T01:38:34.288Z,92.77
2022-08-29T01:41:36.269Z,92.74
2022-08-29T01:44:38.711Z,92.07
2022-08-29T01:47:40.907Z,92.19
2022-08-29T01:50:42.834Z,93.14
2022-08-29T01:53:44.919Z,92.99
2022-08-29T01:56:49.134Z,93.97
2022-08-29T01:59:53.690Z,93.77
2022-08-29T02:02:56.851Z,93.59
2022-08-29T02:06:01.894Z,94.00
2022-08-29T02:09:05.361Z,93.17
2022-08-29T02:12:07.502Z,92.58
2022-08-29T02:15:10.704Z,93.30
2022-08-29T02:18:12.677Z,92.75
2022-08-29T02:21:16.474Z,93.56
2022-08-29T02:24:25.830Z,94.11
2022-08-29T02:27:28.823Z,94.41
2022-08-29T02:30:30.595Z,94.19
2022-08-29T02:33:32.875Z,93.76
2022-08-29T02:36:36.297Z,93.55
2022-08-29T02:39:41.834Z,93.85
2022-08-29T02:42:44.166Z,93.76
2022-08-29T02:45:47.787Z,94.02
2022-08-29T02:49:00.954Z,93.74
2022-08-29T02:52:07.184Z,94.00
2022-08-29T02:55:17.544Z,95.02
2022-08-29T02:58:22.266Z,95.13
2022-08-29T03:01:25.646Z,95.37
2022-08-29T03:04:31.244Z,94.83
2022-08-29T03:07:33.178Z,95.58
2022-08-29T03:10:35.357Z,94.92
2022-08-29T03:13:37.998Z,94.83
2022-08-29T03:16:41.455Z,94.33
2022-08-29T03:19:43.652Z,93.46
2022-08-29T03:22:46.767Z,93.85
2022-08-29T03:25:49.522Z,93.72
2022-08-29T03:28:51.669Z,93.58
2022-08-29T03:31:54.131Z,93.09
2022-08-29T03:34:55.957Z,93.18
2022-08-29T03:37:59.113Z,93.10
2022-08-29T03:41:01.610Z,93.22
2022-08-29T03:44:04.228Z,93.37
2022-08-29T03:47:08.206Z,93.83
2022-08-29T03:50:12.465Z,93.07
2022-08-29T03:53:17.041Z,93.69
2022-08-29T03:56:19.347Z,93.53
2022-08-29T03:59:22.244Z,93.84
2022-08-29T04:02:25.047Z,92.63
2022-08-29T04:05:27.459Z,92.39
2022-08-29T04:08:32.669Z,91.95
2022-08-29T04:11:37.661Z,92.09
2022-08-29T04:14:41.383Z,92.43
2022-08-29T04:17:52.820Z,92.07
2022-08-29T04:21:03.805Z,92.63
2022-08-29T04:24:06.171Z,93.44
2022-08-29T04:27:09.035Z,92.67
2022-08-29T04:30:14.703Z,92.55
2022-08-29T04:33:22.656Z,92.24
2022-08-29T04:36:25.443Z,91.52
2022-08-29T04:39:30.173Z,91.09
2022-08-29T04:42:32.039Z,86.46
2022-08-29T04:45:35.843Z,84.19
2022-08-29T04:48:37.660Z,85.99
2022-08-29T04:51:39.652Z,86.71
2022-08-29T04:54:41.731Z,87.71
2022-08-29T04:57:43.849Z,87.85
2022-08-29T05:00:45.972Z,87.81
2022-08-29T05:03:48.580Z,86.79
2022-08-29T05:06:50.377Z,85.26
2022-08-29T05:10:10.567Z,84.78
2022-08-29T05:13:12.632Z,83.62
2022-08-29T05:16:16.120Z,83.81
2022-08-29T05:19:18.019Z,82.76
2022-08-29T05:22:21.106Z,83.10
2022-08-29T05:25:23.238Z,82.37
2022-08-29T05:28:27.528Z,81.48
2022-08-29T05:31:29.374Z,81.84
2022-08-29T05:34:34.703Z,81.13
2022-08-29T05:37:37.362Z,81.03
2022-08-29T05:40:39.522Z,80.50
2022-08-29T05:43:41.740Z,80.62
2022-08-29T05:46:43.844Z,81.19
2022-08-29T05:49:47.201Z,78.92
2022-08-29T05:52:49.259Z,78.09
2022-08-29T05:55:51.310Z,79.44
2022-08-29T05:58:56.213Z,79.42
2022-08-29T06:01:58.509Z,79.35
2022-08-29T06:05:01.212Z,79.18
2022-08-29T06:08:03.952Z,79.84
2022-08-29T06:11:06.105Z,79.59
2022-08-29T06:14:08.122Z,80.50
2022-08-29T06:17:10.342Z,80.36
2022-08-29T06:20:12.784Z,80.58
2022-08-29T06:23:14.809Z,79.93
2022-08-29T06:26:17.715Z,80.17
2022-08-29T06:29:19.730Z,79.41
2022-08-29T06:32:21.538Z,79.05
2022-08-29T06:35:23.679Z,78.93
2022-08-29T06:38:26.208Z,77.43
2022-08-29T06:41:28.977Z,76.74
2022-08-29T06:44:35.011Z,77.17
2022-08-29T06:47:37.314Z,74.61
2022-08-29T06:50:45.317Z,72.94
2022-08-29T06:53:47.912Z,72.69
2022-08-29T06:56:58.022Z,74.46
2022-08-29T06:59:59.912Z,72.92
2022-08-29T07:03:05.567Z,73.56
2022-08-29T07:06:08.818Z,73.20
2022-08-29T07:09:13.048Z,73.01
2022-08-29T07:12:15.131Z,73.07
2022-08-29T07:15:17.624Z,73.56
2022-08-29T07:18:19.969Z,72.25
2022-08-29T07:21:24.755Z,72.43
2022-08-29T07:24:28.390Z,72.49
2022-08-29T07:27:30.376Z,73.12
2022-08-29T07:30:33.397Z,72.08
2022-08-29T07:33:36.122Z,71.25
2022-08-29T07:36:38.629Z,71.04
2022-08-29T07:39:40.680Z,71.19
2022-08-29T07:42:43.694Z,70.94
2022-08-29T07:45:45.654Z,70.02
2022-08-29T07:48:51.411Z,70.59
2022-08-29T07:51:55.003Z,70.60
2022-08-29T07:54:57.332Z,69.04
2022-08-29T07:57:59.687Z,66.89
2022-08-29T08:01:01.961Z,64.12
2022-08-29T08:04:04.865Z,63.78
2022-08-29T08:07:13.794Z,64.92
2022-08-29T08:10:19.961Z,64.77
2022-08-29T08:13:21.980Z,65.98
2022-08-29T08:16:26.391Z,66.43
2022-08-29T08:19:28.403Z,64.17
2022-08-29T08:22:30.450Z,64.45
2022-08-29T08:25:32.587Z,64.96
2022-08-29T08:28:35.034Z,64.95
2022-08-29T08:31:37.200Z,64.60
2022-08-29T08:34:39.097Z,65.38
2022-08-29T08:37:41.227Z,65.21
2022-08-29T08:40:46.650Z,65.76
2022-08-29T08:44:02.513Z,64.83
2022-08-29T08:47:07.409Z,64.31
2022-08-29T08:50:13.062Z,63.74
2022-08-29T08:53:35.433Z,62.63
2022-08-29T08:56:41.190Z,61.68
2022-08-29T08:59:52.913Z,63.12
2022-08-29T09:03:00.084Z,62.22
2022-08-29T09:06:27.206Z,62.43
2022-08-29T09:09:57.585Z,62.47
2022-08-29T09:13:06.661Z,63.56
2022-08-29T09:16:25.181Z,63.38
2022-08-29T09:19:27.615Z,61.15
2022-08-29T09:22:32.851Z,59.83
2022-08-29T09:25:36.676Z,60.97
2022-08-29T09:28:41.321Z,61.91
2022-08-29T09:31:43.851Z,61.41
2022-08-29T09:35:07.875Z,61.25
2022-08-29T09:38:25.371Z,62.13
2022-08-29T09:41:28.496Z,59.35
2022-08-29T09:44:35.075Z,62.14
2022-08-29T09:47:37.548Z,60.61
2022-08-29T09:50:40.201Z,60.08
2022-08-29T09:53:43.648Z,60.15
2022-08-29T09:57:10.987Z,62.16
2022-08-29T10:00:17.273Z,60.58
2022-08-29T10:03:22.355Z,61.15
2022-08-29T10:06:26.866Z,59.86
2022-08-29T10:09:29.143Z,61.26
2022-08-29T10:12:38.639Z,61.03
2022-08-29T10:16:02.825Z,58.85
2022-08-29T10:19:14.071Z,59.28
2022-08-29T10:22:36.023Z,57.16
2022-08-29T10:25:39.595Z,58.46
2022-08-29T10:28:51.643Z,56.33
2022-08-29T10:32:26.027Z,58.98
2022-08-29T10:35:32.815Z,58.98
2022-08-29T10:38:56.821Z,58.37
2022-08-29T10:42:16.350Z,58.23
2022-08-29T10:45:40.464Z,57.82
2022-08-29T10:49:07.303Z,60.66
2022-08-29T10:52:13.618Z,57.46
2022-08-29T10:55:19.942Z,58.24
2022-08-29T10:58:31.855Z,58.60
2022-08-29T11:01:41.114Z,58.29
2022-08-29T11:04:51.524Z,57.02
2022-08-29T11:08:02.296Z,57.44
2022-08-29T11:11:06.996Z,57.23
2022-08-29T11:14:25.464Z,57.75
2022-08-29T11:17:31.993Z,55.83
2022-08-29T11:20:41.387Z,57.15
2022-08-29T11:23:48.107Z,57.78
2022-08-29T11:27:09.466Z,55.61
2022-08-29T11:30:18.554Z,57.46
2022-08-29T11:33:57.244Z,57.27
2022-08-29T11:37:37.653Z,57.63
2022-08-29T11:44:35.431Z,55.04
2022-08-29T11:47:46.155Z,57.66
2022-08-29T11:50:49.643Z,55.74
2022-08-29T11:53:51.801Z,56.52
2022-08-29T11:57:03.713Z,55.56
2022-08-29T12:00:44.100Z,56.78
2022-08-29T12:03:47.188Z,54.66
2022-08-29T12:06:54.016Z,55.44
2022-08-29T12:09:57.560Z,57.10
2022-08-29T12:13:05.758Z,54.64
2022-08-29T12:16:12.891Z,55.42
2022-08-29T12:19:49.954Z,55.17
2022-08-29T12:22:52.220Z,56.28
2022-08-29T12:26:16.306Z,54.76
2022-08-29T12:29:41.166Z,54.14
2022-08-29T12:33:10.974Z,53.58
2022-08-29T12:36:19.393Z,52.93
2022-08-29T12:39:42.992Z,53.47
2022-08-29T12:42:58.848Z,52.77
2022-08-29T12:46:03.684Z,52.64
2022-08-29T12:49:25.798Z,51.71
2022-08-29T12:52:38.158Z,54.17
2022-08-29T12:55:44.678Z,52.68
2022-08-29T12:58:53.459Z,51.92
2022-08-29T13:01:58.579Z,52.55
2022-08-29T13:05:01.539Z,51.52
2022-08-29T13:08:21.501Z,51.57
2022-08-29T13:11:26.568Z,51.67
2022-08-29T13:14:28.672Z,51.61
2022-08-29T13:17:37.819Z,52.17
2022-08-29T13:20:41.812Z,51.56
2022-08-29T13:23:47.939Z,51.25
2022-08-29T13:27:04.717Z,50.65
2022-08-29T13:30:09.602Z,51.31
2022-08-29T13:33:34.810Z,51.54
2022-08-29T13:36:59.491Z,49.65
2022-08-29T13:40:37.284Z,50.75
2022-08-29T13:43:43.983Z,51.70
2022-08-29T13:46:47.875Z,50.64
2022-08-29T13:49:50.498Z,50.01
2022-08-29T13:52:55.221Z,50.89
2022-08-29T13:55:59.333Z,49.16
2022-08-29T13:59:01.605Z,50.80
2022-08-29T14:02:09.318Z,49.49
2022-08-29T14:05:13.921Z,50.61
2022-08-29T14:08:16.389Z,49.99
2022-08-29T14:11:19.032Z,51.01
2022-08-29T14:14:21.613Z,50.56
2022-08-29T14:17:24.275Z,50.79
2022-08-29T14:20:26.779Z,50.56
2022-08-29T14:23:31.978Z,50.66
2022-08-29T14:26:33.937Z,51.07
2022-08-29T14:29:36.536Z,50.46
2022-08-29T14:32:38.932Z,51.32
2022-08-29T14:35:43.406Z,49.83
2022-08-29T14:38:45.408Z,49.46
2022-08-29T14:41:47.839Z,50.04
2022-08-29T14:44:49.872Z,49.92
2022-08-29T14:47:51.827Z,49.98
2022-08-29T14:50:56.394Z,50.37
2022-08-29T14:54:01.291Z,50.50
2022-08-29T14:57:03.571Z,49.47
2022-08-29T15:00:34.430Z,50.21
2022-08-29T15:03:37.582Z,50.05
2022-08-29T15:06:39.902Z,49.51
2022-08-29T15:09:44.350Z,49.96
2022-08-29T15:12:46.478Z,48.06
2022-08-29T15:15:48.477Z,49.49
2022-08-29T15:19:33.743Z,48.81
2022-08-29T15:22:13.149Z,48.83
2022-08-29T15:25:15.387Z,48.95
2022-08-29T15:28:17.523Z,49.60
2022-08-29T15:31:22.647Z,48.16
2022-08-29T15:34:26.157Z,49.60
2022-08-29T15:37:28.251Z,49.62
2022-08-29T15:40:30.437Z,49.08
2022-08-29T15:43:32.664Z,49.44
2022-08-29T15:46:37.880Z,49.51
2022-08-29T15:49:40.275Z,48.98
2022-08-29T15:52:42.830Z,50.37
2022-08-29T15:55:45.099Z,49.56
2022-08-29T15:58:48.596Z,49.64
2022-08-29T16:01:52.553Z,49.54
2022-08-29T17:26:20.636Z,60.57
2022-08-29T17:29:29.676Z,59.94
2022-08-29T17:32:32.601Z,61.91
2022-08-29T17:35:35.337Z,63.00
2022-08-29T17:38:43.695Z,64.09
2022-08-29T17:41:50.666Z,65.79
2022-08-29T17:44:52.957Z,67.38
2022-08-29T17:47:56.921Z,67.65
2022-08-29T17:50:59.674Z,70.53
2022-08-29T17:54:05.427Z,70.35
2022-08-29T17:57:08.474Z,70.83
2022-08-29T18:00:14.154Z,70.74
2022-08-29T18:03:18.754Z,70.83
2022-08-29T18:06:21.745Z,71.38
2022-08-29T18:09:25.211Z,71.50
2022-08-29T18:12:27.494Z,71.52
2022-08-29T18:15:30.136Z,71.55
2022-08-29T18:18:38.133Z,71.33
2022-08-29T18:21:45.250Z,71.76
2022-08-29T18:24:49.561Z,71.94
2022-08-29T18:27:54.515Z,71.41
2022-08-29T18:30:59.312Z,70.94
2022-08-29T18:34:02.491Z,70.88
2022-08-29T18:37:07.540Z,70.38
2022-08-29T18:40:11.657Z,69.64
2022-08-29T18:43:16.271Z,70.77
2022-08-29T18:46:20.160Z,70.97
2022-08-29T18:49:46.271Z,70.92
2022-08-29T18:52:52.672Z,71.76
2022-08-29T18:55:55.667Z,71.55
2022-08-29T18:58:59.069Z,71.14
2022-08-29T19:02:01.745Z,71.09
2022-08-29T19:05:04.801Z,70.73
2022-08-29T19:08:09.169Z,71.14
2022-08-29T19:11:11.764Z,70.93
2022-08-29T19:14:14.343Z,71.51
2022-08-29T19:17:17.790Z,69.87
2022-08-29T19:20:43.003Z,70.25
2022-08-29T19:23:52.406Z,71.10
2022-08-29T19:26:59.511Z,70.17
2022-08-29T19:30:05.473Z,70.10
2022-08-29T19:33:10.373Z,69.58
2022-08-29T19:36:12.874Z,68.92
2022-08-29T19:39:16.253Z,70.07
2022-08-29T19:42:19.201Z,70.19
2022-08-29T19:45:22.023Z,72.23
2022-08-29T19:48:25.069Z,72.10
2022-08-29T19:51:33.247Z,72.71
2022-08-29T19:54:35.486Z,73.74
2022-08-29T19:57:39.791Z,73.68
2022-08-29T20:00:45.158Z,75.06
2022-08-29T20:03:48.141Z,74.73
2022-08-29T20:06:50.771Z,76.39
2022-08-29T20:09:53.887Z,75.67
2022-08-29T20:12:57.831Z,75.54
2022-08-29T20:16:00.321Z,76.42
2022-08-29T20:19:05.017Z,74.69
2022-08-29T20:22:07.552Z,75.90
2022-08-29T20:25:10.871Z,76.46
2022-08-29T20:28:15.694Z,75.98
2022-08-29T20:31:21.909Z,75.93
2022-08-29T20:34:29.863Z,76.14
2022-08-29T20:37:32.225Z,76.18
2022-08-29T20:40:39.781Z,76.78
2022-08-29T20:43:41.844Z,76.32
2022-08-29T20:46:45.810Z,77.17
2022-08-29T20:49:49.490Z,76.98
2022-08-29T20:52:54.336Z,77.59
2022-08-29T20:55:59.035Z,77.47
2022-08-29T20:59:02.230Z,77.73
2022-08-29T21:02:05.269Z,78.16
2022-08-29T21:05:25.902Z,79.59
2022-08-29T21:08:29.937Z,79.84
2022-08-29T21:11:32.288Z,79.75
2022-08-29T21:14:34.704Z,78.71
2022-08-29T21:17:36.785Z,79.88
2022-08-29T21:20:54.118Z,80.38
2022-08-29T21:23:56.464Z,80.35
2022-08-29T21:26:58.979Z,82.14
2022-08-29T21:30:01.246Z,81.99
2022-08-29T21:33:03.879Z,81.19
2022-08-29T21:36:10.987Z,80.72
2022-08-29T21:39:19.667Z,81.08
2022-08-29T21:42:30.691Z,81.40
2022-08-29T21:45:34.673Z,81.70
2022-08-29T21:48:36.940Z,81.43
2022-08-29T21:51:39.114Z,81.06
2022-08-29T21:54:40.968Z,79.19
2022-08-29T21:57:51.822Z,79.97
2022-08-29T22:00:54.093Z,80.89
2022-08-29T22:03:57.980Z,82.78
2022-08-29T22:07:01.797Z,81.52
2022-08-29T22:10:05.317Z,82.08
2022-08-29T22:13:10.216Z,82.14
2022-08-29T22:16:28.930Z,82.54
2022-08-29T22:19:32.159Z,81.20
2022-08-29T22:22:35.214Z,81.36
2022-08-29T22:25:37.760Z,83.15
2022-08-29T22:28:40.567Z,82.47
2022-08-29T22:31:43.669Z,82.58
2022-08-29T22:34:45.870Z,83.67
2022-08-29T22:37:47.901Z,81.78
2022-08-29T22:40:50.043Z,82.83
2022-08-29T22:44:37.690Z,83.29
2022-08-29T22:47:19.406Z,84.91
2022-08-29T22:50:23.788Z,85.04
2022-08-29T22:53:26.124Z,86.20
2022-08-29T22:56:27.923Z,86.55
2022-08-29T22:59:30.309Z,86.92
2022-08-29T23:02:32.903Z,86.83
2022-08-29T23:05:34.995Z,86.92
2022-08-29T23:08:37.339Z,87.28
2022-08-29T23:11:39.898Z,86.21
2022-08-29T23:14:44.230Z,86.62
2022-08-29T23:17:46.586Z,86.01
2022-08-29T23:20:48.514Z,85.49
2022-08-29T23:23:51.774Z,85.68
2022-08-29T23:26:53.716Z,86.97
2022-08-29T23:29:56.562Z,86.33
2022-08-29T23:33:03.008Z,86.50
2022-08-29T23:36:05.728Z,86.95
2022-08-29T23:39:07.966Z,86.69
2022-08-29T23:42:10.262Z,87.15
2022-08-29T23:45:12.510Z,88.00
2022-08-29T23:48:15.293Z,88.52
2022-08-29T23:51:20.017Z,87.98
2022-08-29T23:54:27.107Z,89.11
2022-08-29T23:57:29.063Z,88.59
